sensor_id;sensor_type;location;lat;lon;timestamp;P1;durP1;ratioP1;P2;durP2;ratioP2
53757;SDS011;39674;59.860;30.672;2022-07-05T00:01:46;10.20;;;6.13;;
53757;SDS011;39674;59.860;30.672;2022-07-05T00:04:21;13.90;;;5.82;;
53757;SDS011;39674;59.860;30.672;2022-07-05T00:06:58;11.38;;;6.32;;
53757;SDS011;39674;59.860;30.672;2022-07-05T00:10:33;10.52;;;5.65;;
53757;SDS011;39674;59.860;30.672;2022-07-05T00:12:58;14.50;;;5.93;;
53757;SDS011;39674;59.860;30.672;2022-07-05T00:15:37;8.75;;;6.47;;
53757;SDS011;39674;59.860;30.672;2022-07-05T00:18:25;17.45;;;6.70;;
53757;SDS011;39674;59.860;30.672;2022-07-05T00:20:58;8.77;;;6.22;;
53757;SDS011;39674;59.860;30.672;2022-07-05T00:23:32;10.88;;;6.38;;
53757;SDS011;39674;59.860;30.672;2022-07-05T00:26:03;8.70;;;5.60;;
53757;SDS011;39674;59.860;30.672;2022-07-05T00:28:44;20.65;;;6.47;;
53757;SDS011;39674;59.860;30.672;2022-07-05T00:31:23;16.15;;;6.28;;
53757;SDS011;39674;59.860;30.672;2022-07-05T00:33:52;13.02;;;6.43;;
53757;SDS011;39674;59.860;30.672;2022-07-05T00:36:36;11.63;;;6.50;;
53757;SDS011;39674;59.860;30.672;2022-07-05T00:39:07;12.25;;;5.95;;
53757;SDS011;39674;59.860;30.672;2022-07-05T00:41:41;14.00;;;6.05;;
53757;SDS011;39674;59.860;30.672;2022-07-05T00:44:16;13.60;;;6.07;;
53757;SDS011;39674;59.860;30.672;2022-07-05T00:46:59;13.85;;;6.97;;
53757;SDS011;39674;59.860;30.672;2022-07-05T00:49:32;7.88;;;5.45;;
53757;SDS011;39674;59.860;30.672;2022-07-05T00:52:12;10.32;;;6.25;;
53757;SDS011;39674;59.860;30.672;2022-07-05T00:54:50;14.38;;;6.88;;
53757;SDS011;39674;59.860;30.672;2022-07-05T00:57:21;13.23;;;6.53;;
53757;SDS011;39674;59.860;30.672;2022-07-05T00:59:52;10.95;;;6.18;;
53757;SDS011;39674;59.860;30.672;2022-07-05T01:02:22;14.07;;;5.95;;
53757;SDS011;39674;59.860;30.672;2022-07-05T01:04:51;12.18;;;5.75;;
53757;SDS011;39674;59.860;30.672;2022-07-05T01:07:20;19.85;;;6.53;;
53757;SDS011;39674;59.860;30.672;2022-07-05T01:10:00;10.32;;;5.97;;
53757;SDS011;39674;59.860;30.672;2022-07-05T01:12:29;15.55;;;6.78;;
53757;SDS011;39674;59.860;30.672;2022-07-05T01:15:01;17.48;;;6.53;;
53757;SDS011;39674;59.860;30.672;2022-07-05T01:17:32;15.13;;;6.63;;
53757;SDS011;39674;59.860;30.672;2022-07-05T01:20:03;11.88;;;6.07;;
53757;SDS011;39674;59.860;30.672;2022-07-05T01:22:46;18.73;;;7.20;;
53757;SDS011;39674;59.860;30.672;2022-07-05T01:25:26;14.77;;;6.28;;
53757;SDS011;39674;59.860;30.672;2022-07-05T01:28:09;15.80;;;7.00;;
53757;SDS011;39674;59.860;30.672;2022-07-05T01:30:50;10.60;;;6.30;;
53757;SDS011;39674;59.860;30.672;2022-07-05T01:33:32;23.00;;;8.18;;
53757;SDS011;39674;59.860;30.672;2022-07-05T01:36:13;13.20;;;6.35;;
53757;SDS011;39674;59.860;30.672;2022-07-05T01:46:07;20.20;;;7.18;;
53757;SDS011;39674;59.860;30.672;2022-07-05T01:51:57;18.25;;;9.10;;
53757;SDS011;39674;59.860;30.672;2022-07-05T01:55:06;15.32;;;8.18;;
53757;SDS011;39674;59.860;30.672;2022-07-05T01:58:25;21.10;;;9.68;;
53757;SDS011;39674;59.860;30.672;2022-07-05T02:01:01;19.60;;;11.68;;
53757;SDS011;39674;59.860;30.672;2022-07-05T02:04:07;23.15;;;11.02;;
53757;SDS011;39674;59.860;30.672;2022-07-05T02:08:09;12.93;;;9.53;;
53757;SDS011;39674;59.860;30.672;2022-07-05T02:10:31;17.30;;;9.50;;
53757;SDS011;39674;59.860;30.672;2022-07-05T02:15:34;14.98;;;8.20;;
53757;SDS011;39674;59.860;30.672;2022-07-05T02:16:31;13.02;;;8.13;;
53757;SDS011;39674;59.860;30.672;2022-07-05T02:19:56;15.98;;;8.38;;
53757;SDS011;39674;59.860;30.672;2022-07-05T02:22:50;15.65;;;8.13;;
53757;SDS011;39674;59.860;30.672;2022-07-05T02:25:38;18.85;;;7.47;;
53757;SDS011;39674;59.860;30.672;2022-07-05T02:28:49;16.58;;;6.78;;
53757;SDS011;39674;59.860;30.672;2022-07-05T02:31:46;10.95;;;5.10;;
53757;SDS011;39674;59.860;30.672;2022-07-05T02:34:40;17.07;;;5.43;;
53757;SDS011;39674;59.860;30.672;2022-07-05T02:37:11;15.57;;;5.55;;
53757;SDS011;39674;59.860;30.672;2022-07-05T02:43:03;10.55;;;4.43;;
53757;SDS011;39674;59.860;30.672;2022-07-05T02:45:47;13.52;;;3.90;;
53757;SDS011;39674;59.860;30.672;2022-07-05T02:48:48;12.05;;;3.88;;
53757;SDS011;39674;59.860;30.672;2022-07-05T02:51:42;9.85;;;3.58;;
53757;SDS011;39674;59.860;30.672;2022-07-05T02:54:57;4.72;;;3.50;;
53757;SDS011;39674;59.860;30.672;2022-07-05T02:58:09;9.02;;;3.60;;
53757;SDS011;39674;59.860;30.672;2022-07-05T03:01:00;5.65;;;3.20;;
53757;SDS011;39674;59.860;30.672;2022-07-05T03:03:47;17.40;;;3.50;;
53757;SDS011;39674;59.860;30.672;2022-07-05T03:07:11;8.88;;;3.47;;
53757;SDS011;39674;59.860;30.672;2022-07-05T03:09:54;8.43;;;3.10;;
53757;SDS011;39674;59.860;30.672;2022-07-05T03:12:47;9.73;;;3.50;;
53757;SDS011;39674;59.860;30.672;2022-07-05T03:15:28;9.45;;;3.63;;
53757;SDS011;39674;59.860;30.672;2022-07-05T03:18:26;7.43;;;2.70;;
53757;SDS011;39674;59.860;30.672;2022-07-05T03:21:14;6.60;;;2.78;;
53757;SDS011;39674;59.860;30.672;2022-07-05T03:24:14;8.02;;;2.72;;
53757;SDS011;39674;59.860;30.672;2022-07-05T03:27:11;6.95;;;3.17;;
53757;SDS011;39674;59.860;30.672;2022-07-05T03:30:06;7.28;;;2.90;;
53757;SDS011;39674;59.860;30.672;2022-07-05T03:32:49;6.07;;;2.63;;
53757;SDS011;39674;59.860;30.672;2022-07-05T03:36:08;4.68;;;2.35;;
53757;SDS011;39674;59.860;30.672;2022-07-05T03:39:16;5.10;;;2.55;;
53757;SDS011;39674;59.860;30.672;2022-07-05T03:42:26;9.80;;;2.97;;
53757;SDS011;39674;59.860;30.672;2022-07-05T03:45:02;8.07;;;3.00;;
53757;SDS011;39674;59.860;30.672;2022-07-05T03:47:36;4.30;;;2.70;;
53757;SDS011;39674;59.860;30.672;2022-07-05T03:51:13;8.52;;;2.90;;
53757;SDS011;39674;59.860;30.672;2022-07-05T03:53:38;9.23;;;3.55;;
53757;SDS011;39674;59.860;30.672;2022-07-05T03:59:51;7.07;;;2.83;;
53757;SDS011;39674;59.860;30.672;2022-07-05T04:02:30;7.93;;;3.45;;
53757;SDS011;39674;59.860;30.672;2022-07-05T04:05:19;5.97;;;3.08;;
53757;SDS011;39674;59.860;30.672;2022-07-05T04:08:16;8.85;;;3.22;;
53757;SDS011;39674;59.860;30.672;2022-07-05T04:14:17;6.63;;;3.65;;
53757;SDS011;39674;59.860;30.672;2022-07-05T04:25:18;4.03;;;3.00;;
53757;SDS011;39674;59.860;30.672;2022-07-05T04:29:38;7.43;;;3.75;;
53757;SDS011;39674;59.860;30.672;2022-07-05T04:32:07;8.15;;;4.40;;
53757;SDS011;39674;59.860;30.672;2022-07-05T04:34:38;6.70;;;4.70;;
53757;SDS011;39674;59.860;30.672;2022-07-05T04:37:08;10.98;;;5.13;;
53757;SDS011;39674;59.860;30.672;2022-07-05T04:39:37;8.55;;;4.40;;
53757;SDS011;39674;59.860;30.672;2022-07-05T04:42:09;8.65;;;5.05;;
53757;SDS011;39674;59.860;30.672;2022-07-05T04:44:49;6.45;;;4.78;;
53757;SDS011;39674;59.860;30.672;2022-07-05T04:47:23;7.78;;;4.05;;
53757;SDS011;39674;59.860;30.672;2022-07-05T04:52:37;6.45;;;3.40;;
53757;SDS011;39674;59.860;30.672;2022-07-05T04:55:08;6.28;;;3.67;;
53757;SDS011;39674;59.860;30.672;2022-07-05T04:57:37;7.15;;;3.78;;
53757;SDS011;39674;59.860;30.672;2022-07-05T05:00:12;8.60;;;4.18;;
53757;SDS011;39674;59.860;30.672;2022-07-05T05:02:42;5.10;;;3.50;;
53757;SDS011;39674;59.860;30.672;2022-07-05T05:05:10;6.63;;;3.85;;
53757;SDS011;39674;59.860;30.672;2022-07-05T05:07:46;9.93;;;4.38;;
53757;SDS011;39674;59.860;30.672;2022-07-05T05:10:15;7.13;;;3.67;;
53757;SDS011;39674;59.860;30.672;2022-07-05T05:12:46;5.45;;;3.65;;
53757;SDS011;39674;59.860;30.672;2022-07-05T05:15:19;7.57;;;3.58;;
53757;SDS011;39674;59.860;30.672;2022-07-05T05:18:19;8.13;;;4.20;;
53757;SDS011;39674;59.860;30.672;2022-07-05T05:21:20;10.93;;;4.55;;
53757;SDS011;39674;59.860;30.672;2022-07-05T05:23:57;12.80;;;5.18;;
53757;SDS011;39674;59.860;30.672;2022-07-05T05:30:07;8.75;;;5.43;;
53757;SDS011;39674;59.860;30.672;2022-07-05T05:32:40;8.57;;;4.32;;
53757;SDS011;39674;59.860;30.672;2022-07-05T05:35:20;9.40;;;5.30;;
53757;SDS011;39674;59.860;30.672;2022-07-05T05:38:36;10.93;;;4.88;;
53757;SDS011;39674;59.860;30.672;2022-07-05T05:45:33;11.75;;;5.65;;
53757;SDS011;39674;59.860;30.672;2022-07-05T05:54:10;10.18;;;5.80;;
53757;SDS011;39674;59.860;30.672;2022-07-05T05:57:24;8.00;;;5.43;;
53757;SDS011;39674;59.860;30.672;2022-07-05T06:06:06;10.35;;;5.82;;
53757;SDS011;39674;59.860;30.672;2022-07-05T06:08:43;12.17;;;6.23;;
53757;SDS011;39674;59.860;30.672;2022-07-05T06:11:14;12.67;;;5.13;;
53757;SDS011;39674;59.860;30.672;2022-07-05T06:13:54;13.32;;;5.97;;
53757;SDS011;39674;59.860;30.672;2022-07-05T06:16:37;13.63;;;5.65;;
53757;SDS011;39674;59.860;30.672;2022-07-05T06:19:17;11.15;;;5.90;;
53757;SDS011;39674;59.860;30.672;2022-07-05T06:21:57;10.13;;;5.82;;
53757;SDS011;39674;59.860;30.672;2022-07-05T06:27:16;12.80;;;6.15;;
53757;SDS011;39674;59.860;30.672;2022-07-05T06:29:56;12.20;;;6.53;;
53757;SDS011;39674;59.860;30.672;2022-07-05T06:32:35;17.15;;;6.70;;
53757;SDS011;39674;59.860;30.672;2022-07-05T06:35:16;17.83;;;7.20;;
53757;SDS011;39674;59.860;30.672;2022-07-05T06:37:57;12.55;;;7.78;;
53757;SDS011;39674;59.860;30.672;2022-07-05T06:42:22;16.27;;;7.65;;
53757;SDS011;39674;59.860;30.672;2022-07-05T06:44:57;15.32;;;8.48;;
53757;SDS011;39674;59.860;30.672;2022-07-05T06:47:31;11.85;;;8.52;;
53757;SDS011;39674;59.860;30.672;2022-07-05T06:56:21;13.77;;;8.90;;
53757;SDS011;39674;59.860;30.672;2022-07-05T06:58:55;16.92;;;8.77;;
53757;SDS011;39674;59.860;30.672;2022-07-05T07:01:32;13.88;;;8.65;;
53757;SDS011;39674;59.860;30.672;2022-07-05T07:04:31;13.85;;;8.55;;
53757;SDS011;39674;59.860;30.672;2022-07-05T07:07:31;16.25;;;11.02;;
53757;SDS011;39674;59.860;30.672;2022-07-05T07:10:25;16.48;;;11.02;;
53757;SDS011;39674;59.860;30.672;2022-07-05T07:13:10;14.07;;;8.82;;
53757;SDS011;39674;59.860;30.672;2022-07-05T07:16:10;14.98;;;9.63;;
53757;SDS011;39674;59.860;30.672;2022-07-05T07:18:46;12.85;;;8.90;;
53757;SDS011;39674;59.860;30.672;2022-07-05T07:21:23;18.83;;;10.50;;
53757;SDS011;39674;59.860;30.672;2022-07-05T07:24:40;15.55;;;9.68;;
53757;SDS011;39674;59.860;30.672;2022-07-05T07:27:22;14.18;;;11.13;;
53757;SDS011;39674;59.860;30.672;2022-07-05T07:30:09;19.67;;;10.57;;
53757;SDS011;39674;59.860;30.672;2022-07-05T07:32:49;15.57;;;10.70;;
53757;SDS011;39674;59.860;30.672;2022-07-05T07:35:21;21.65;;;9.43;;
53757;SDS011;39674;59.860;30.672;2022-07-05T07:37:53;14.23;;;9.68;;
53757;SDS011;39674;59.860;30.672;2022-07-05T07:43:59;19.40;;;10.52;;
53757;SDS011;39674;59.860;30.672;2022-07-05T07:49:49;14.55;;;9.05;;
53757;SDS011;39674;59.860;30.672;2022-07-05T07:52:36;12.88;;;8.35;;
53757;SDS011;39674;59.860;30.672;2022-07-05T08:03:04;15.10;;;9.35;;
53757;SDS011;39674;59.860;30.672;2022-07-05T08:08:49;11.82;;;7.68;;
53757;SDS011;39674;59.860;30.672;2022-07-05T08:11:37;13.30;;;7.68;;
53757;SDS011;39674;59.860;30.672;2022-07-05T08:14:10;13.77;;;8.67;;
53757;SDS011;39674;59.860;30.672;2022-07-05T08:16:53;14.25;;;10.02;;
53757;SDS011;39674;59.860;30.672;2022-07-05T08:19:52;10.95;;;9.02;;
53757;SDS011;39674;59.860;30.672;2022-07-05T08:22:51;17.48;;;8.40;;
53757;SDS011;39674;59.860;30.672;2022-07-05T08:25:27;13.43;;;8.17;;
53757;SDS011;39674;59.860;30.672;2022-07-05T08:28:05;14.02;;;7.95;;
53757;SDS011;39674;59.860;30.672;2022-07-05T08:30:40;14.73;;;8.50;;
53757;SDS011;39674;59.860;30.672;2022-07-05T08:33:18;13.70;;;7.40;;
53757;SDS011;39674;59.860;30.672;2022-07-05T08:39:54;10.25;;;6.45;;
53757;SDS011;39674;59.860;30.672;2022-07-05T08:45:44;16.20;;;7.55;;
53757;SDS011;39674;59.860;30.672;2022-07-05T08:48:28;9.18;;;6.28;;
53757;SDS011;39674;59.860;30.672;2022-07-05T08:54:08;9.43;;;5.88;;
53757;SDS011;39674;59.860;30.672;2022-07-05T09:06:45;11.00;;;4.78;;
53757;SDS011;39674;59.860;30.672;2022-07-05T09:20:03;6.95;;;4.15;;
53757;SDS011;39674;59.860;30.672;2022-07-05T09:27:39;8.98;;;3.97;;
53757;SDS011;39674;59.860;30.672;2022-07-05T09:31:32;10.57;;;3.70;;
53757;SDS011;39674;59.860;30.672;2022-07-05T10:19:14;3.63;;;1.58;;
53757;SDS011;39674;59.860;30.672;2022-07-05T10:37:51;6.47;;;2.10;;
53757;SDS011;39674;59.860;30.672;2022-07-05T11:01:33;9.45;;;1.85;;
53757;SDS011;39674;59.860;30.672;2022-07-05T11:43:29;4.13;;;1.05;;
53757;SDS011;39674;59.860;30.672;2022-07-05T11:46:47;4.57;;;1.58;;
53757;SDS011;39674;59.860;30.672;2022-07-05T11:51:06;3.83;;;1.42;;
53757;SDS011;39674;59.860;30.672;2022-07-05T11:54:57;3.50;;;1.20;;
53757;SDS011;39674;59.860;30.672;2022-07-05T12:02:05;4.60;;;0.90;;
53757;SDS011;39674;59.860;30.672;2022-07-05T12:05:04;4.72;;;0.70;;
53757;SDS011;39674;59.860;30.672;2022-07-05T12:08:18;1.73;;;0.85;;
53757;SDS011;39674;59.860;30.672;2022-07-05T12:14:30;6.53;;;1.30;;
53757;SDS011;39674;59.860;30.672;2022-07-05T12:17:15;8.88;;;1.35;;
53757;SDS011;39674;59.860;30.672;2022-07-05T12:22:31;4.68;;;1.30;;
53757;SDS011;39674;59.860;30.672;2022-07-05T12:24:32;2.78;;;1.15;;
53757;SDS011;39674;59.860;30.672;2022-07-05T12:32:14;19.95;;;2.03;;
53757;SDS011;39674;59.860;30.672;2022-07-05T12:35:32;7.22;;;1.55;;
53757;SDS011;39674;59.860;30.672;2022-07-05T12:38:37;4.60;;;1.10;;
53757;SDS011;39674;59.860;30.672;2022-07-05T12:41:38;13.10;;;2.17;;
53757;SDS011;39674;59.860;30.672;2022-07-05T12:50:00;4.53;;;1.33;;
53757;SDS011;39674;59.860;30.672;2022-07-05T12:52:55;2.88;;;1.42;;
53757;SDS011;39674;59.860;30.672;2022-07-05T12:56:04;2.65;;;1.65;;
53757;SDS011;39674;59.860;30.672;2022-07-05T12:59:02;3.20;;;1.50;;
53757;SDS011;39674;59.860;30.672;2022-07-05T13:09:40;7.13;;;1.98;;
53757;SDS011;39674;59.860;30.672;2022-07-05T13:17:05;9.13;;;2.33;;
53757;SDS011;39674;59.860;30.672;2022-07-05T13:24:17;2.63;;;1.70;;
53757;SDS011;39674;59.860;30.672;2022-07-05T13:26:58;2.40;;;1.75;;
53757;SDS011;39674;59.860;30.672;2022-07-05T13:30:30;5.10;;;1.58;;
53757;SDS011;39674;59.860;30.672;2022-07-05T13:33:39;10.07;;;2.80;;
53757;SDS011;39674;59.860;30.672;2022-07-05T13:37:13;5.63;;;1.75;;
53757;SDS011;39674;59.860;30.672;2022-07-05T14:00:44;3.85;;;2.00;;
53757;SDS011;39674;59.860;30.672;2022-07-05T14:09:18;7.50;;;2.20;;
53757;SDS011;39674;59.860;30.672;2022-07-05T14:12:15;10.77;;;2.28;;
53757;SDS011;39674;59.860;30.672;2022-07-05T14:15:21;4.22;;;2.03;;
53757;SDS011;39674;59.860;30.672;2022-07-05T14:17:50;5.97;;;2.15;;
53757;SDS011;39674;59.860;30.672;2022-07-05T14:24:07;4.88;;;2.20;;
53757;SDS011;39674;59.860;30.672;2022-07-05T14:26:50;5.13;;;2.28;;
53757;SDS011;39674;59.860;30.672;2022-07-05T14:33:03;5.72;;;2.15;;
53757;SDS011;39674;59.860;30.672;2022-07-05T14:35:38;24.38;;;3.30;;
53757;SDS011;39674;59.860;30.672;2022-07-05T14:42:50;4.40;;;2.72;;
53757;SDS011;39674;59.860;30.672;2022-07-05T14:46:14;5.70;;;2.47;;
53757;SDS011;39674;59.860;30.672;2022-07-05T15:05:06;3.03;;;1.50;;
53757;SDS011;39674;59.860;30.672;2022-07-05T15:13:03;8.52;;;1.35;;
53757;SDS011;39674;59.860;30.672;2022-07-05T15:21:57;7.88;;;1.80;;
53757;SDS011;39674;59.860;30.672;2022-07-05T15:24:23;5.97;;;1.60;;
53757;SDS011;39674;59.860;30.672;2022-07-05T15:34:47;3.25;;;1.10;;
53757;SDS011;39674;59.860;30.672;2022-07-05T15:38:48;6.95;;;1.58;;
53757;SDS011;39674;59.860;30.672;2022-07-05T15:58:27;12.20;;;2.08;;
53757;SDS011;39674;59.860;30.672;2022-07-05T16:00:45;2.28;;;1.80;;
53757;SDS011;39674;59.860;30.672;2022-07-05T16:08:00;6.63;;;1.90;;
53757;SDS011;39674;59.860;30.672;2022-07-05T16:14:54;4.78;;;1.50;;
53757;SDS011;39674;59.860;30.672;2022-07-05T16:19:19;3.88;;;1.23;;
53757;SDS011;39674;59.860;30.672;2022-07-05T16:22:14;1.38;;;1.10;;
53757;SDS011;39674;59.860;30.672;2022-07-05T16:26:50;2.05;;;1.20;;
53757;SDS011;39674;59.860;30.672;2022-07-05T16:29:25;4.60;;;1.45;;
53757;SDS011;39674;59.860;30.672;2022-07-05T16:32:52;9.65;;;2.17;;
53757;SDS011;39674;59.860;30.672;2022-07-05T16:35:51;3.08;;;1.15;;
53757;SDS011;39674;59.860;30.672;2022-07-05T16:38:50;4.57;;;1.20;;
53757;SDS011;39674;59.860;30.672;2022-07-05T16:42:39;6.82;;;1.42;;
53757;SDS011;39674;59.860;30.672;2022-07-05T16:50:34;16.60;;;1.88;;
53757;SDS011;39674;59.860;30.672;2022-07-05T16:52:59;3.30;;;1.42;;
53757;SDS011;39674;59.860;30.672;2022-07-05T16:55:57;7.78;;;1.98;;
53757;SDS011;39674;59.860;30.672;2022-07-05T16:58:52;4.93;;;1.77;;
53757;SDS011;39674;59.860;30.672;2022-07-05T17:01:47;14.75;;;1.45;;
53757;SDS011;39674;59.860;30.672;2022-07-05T17:04:56;4.18;;;1.05;;
53757;SDS011;39674;59.860;30.672;2022-07-05T17:07:36;8.82;;;1.10;;
53757;SDS011;39674;59.860;30.672;2022-07-05T17:10:32;6.65;;;1.00;;
53757;SDS011;39674;59.860;30.672;2022-07-05T17:13:13;2.42;;;0.95;;
53757;SDS011;39674;59.860;30.672;2022-07-05T17:16:08;6.75;;;1.08;;
53757;SDS011;39674;59.860;30.672;2022-07-05T17:19:16;4.80;;;0.40;;
53757;SDS011;39674;59.860;30.672;2022-07-05T17:22:24;2.70;;;0.55;;
53757;SDS011;39674;59.860;30.672;2022-07-05T17:25:14;4.83;;;0.60;;
53757;SDS011;39674;59.860;30.672;2022-07-05T17:28:05;9.98;;;0.82;;
53757;SDS011;39674;59.860;30.672;2022-07-05T17:31:09;6.55;;;0.90;;
53757;SDS011;39674;59.860;30.672;2022-07-05T17:34:18;11.70;;;1.15;;
53757;SDS011;39674;59.860;30.672;2022-07-05T17:37:06;6.30;;;1.05;;
53757;SDS011;39674;59.860;30.672;2022-07-05T17:39:53;3.40;;;1.67;;
53757;SDS011;39674;59.860;30.672;2022-07-05T17:43:10;11.15;;;3.22;;
53757;SDS011;39674;59.860;30.672;2022-07-05T17:46:00;10.52;;;2.20;;
53757;SDS011;39674;59.860;30.672;2022-07-05T17:48:58;3.20;;;0.98;;
53757;SDS011;39674;59.860;30.672;2022-07-05T17:51:49;5.93;;;1.33;;
53757;SDS011;39674;59.860;30.672;2022-07-05T17:55:19;9.20;;;1.67;;
53757;SDS011;39674;59.860;30.672;2022-07-05T17:58:14;5.38;;;0.95;;
53757;SDS011;39674;59.860;30.672;2022-07-05T18:01:27;17.52;;;1.63;;
53757;SDS011;39674;59.860;30.672;2022-07-05T18:05:14;3.50;;;0.40;;
53757;SDS011;39674;59.860;30.672;2022-07-05T18:08:00;5.30;;;0.65;;
53757;SDS011;39674;59.860;30.672;2022-07-05T18:10:57;3.08;;;0.85;;
53757;SDS011;39674;59.860;30.672;2022-07-05T18:14:14;1.20;;;0.70;;
53757;SDS011;39674;59.860;30.672;2022-07-05T18:17:04;2.03;;;0.80;;
53757;SDS011;39674;59.860;30.672;2022-07-05T18:19:48;2.25;;;0.50;;
53757;SDS011;39674;59.860;30.672;2022-07-05T18:22:43;3.67;;;0.75;;
53757;SDS011;39674;59.860;30.672;2022-07-05T18:25:44;1.40;;;0.47;;
53757;SDS011;39674;59.860;30.672;2022-07-05T18:29:19;6.03;;;0.90;;
53757;SDS011;39674;59.860;30.672;2022-07-05T18:32:15;3.55;;;0.60;;
53757;SDS011;39674;59.860;30.672;2022-07-05T18:35:23;1.98;;;0.80;;
53757;SDS011;39674;59.860;30.672;2022-07-05T18:38:27;11.50;;;1.85;;
53757;SDS011;39674;59.860;30.672;2022-07-05T18:41:41;4.22;;;1.20;;
53757;SDS011;39674;59.860;30.672;2022-07-05T18:45:05;4.35;;;1.25;;
53757;SDS011;39674;59.860;30.672;2022-07-05T18:48:33;5.82;;;1.10;;
53757;SDS011;39674;59.860;30.672;2022-07-05T18:55:23;5.47;;;1.35;;
53757;SDS011;39674;59.860;30.672;2022-07-05T18:58:12;7.43;;;1.20;;
53757;SDS011;39674;59.860;30.672;2022-07-05T19:01:05;3.17;;;0.73;;
53757;SDS011;39674;59.860;30.672;2022-07-05T19:04:18;9.55;;;1.55;;
53757;SDS011;39674;59.860;30.672;2022-07-05T19:06:57;4.55;;;1.10;;
53757;SDS011;39674;59.860;30.672;2022-07-05T19:10:08;5.43;;;1.92;;
53757;SDS011;39674;59.860;30.672;2022-07-05T19:13:27;2.95;;;0.82;;
53757;SDS011;39674;59.860;30.672;2022-07-05T19:16:26;11.70;;;0.93;;
53757;SDS011;39674;59.860;30.672;2022-07-05T19:19:45;5.07;;;1.30;;
53757;SDS011;39674;59.860;30.672;2022-07-05T19:23:35;6.63;;;0.88;;
53757;SDS011;39674;59.860;30.672;2022-07-05T19:30:01;9.73;;;1.50;;
53757;SDS011;39674;59.860;30.672;2022-07-05T19:32:49;3.10;;;0.95;;
53757;SDS011;39674;59.860;30.672;2022-07-05T19:36:35;5.20;;;0.90;;
53757;SDS011;39674;59.860;30.672;2022-07-05T19:39:58;1.98;;;0.73;;
53757;SDS011;39674;59.860;30.672;2022-07-05T19:43:24;3.22;;;1.20;;
53757;SDS011;39674;59.860;30.672;2022-07-05T19:46:40;3.58;;;0.90;;
53757;SDS011;39674;59.860;30.672;2022-07-05T19:50:46;5.82;;;0.95;;
53757;SDS011;39674;59.860;30.672;2022-07-05T19:54:12;5.20;;;0.95;;
53757;SDS011;39674;59.860;30.672;2022-07-05T19:58:08;3.20;;;1.17;;
53757;SDS011;39674;59.860;30.672;2022-07-05T20:05:59;2.15;;;0.75;;
53757;SDS011;39674;59.860;30.672;2022-07-05T20:10:20;2.40;;;0.80;;
53757;SDS011;39674;59.860;30.672;2022-07-05T20:13:55;2.83;;;0.85;;
53757;SDS011;39674;59.860;30.672;2022-07-05T20:20:10;4.28;;;1.45;;
53757;SDS011;39674;59.860;30.672;2022-07-05T20:36:55;2.30;;;0.80;;
53757;SDS011;39674;59.860;30.672;2022-07-05T20:40:13;4.38;;;0.90;;
53757;SDS011;39674;59.860;30.672;2022-07-05T21:04:48;6.22;;;1.40;;
53757;SDS011;39674;59.860;30.672;2022-07-05T21:08:16;7.07;;;2.38;;
53757;SDS011;39674;59.860;30.672;2022-07-05T21:10:58;7.93;;;2.88;;
53757;SDS011;39674;59.860;30.672;2022-07-05T21:14:16;7.30;;;3.13;;
53757;SDS011;39674;59.860;30.672;2022-07-05T21:19:58;7.35;;;1.67;;
53757;SDS011;39674;59.860;30.672;2022-07-05T21:25:45;3.85;;;1.42;;
53757;SDS011;39674;59.860;30.672;2022-07-05T21:28:23;4.65;;;1.80;;
53757;SDS011;39674;59.860;30.672;2022-07-05T21:31:29;4.38;;;1.23;;
53757;SDS011;39674;59.860;30.672;2022-07-05T21:34:01;4.07;;;1.33;;
53757;SDS011;39674;59.860;30.672;2022-07-05T21:37:13;2.50;;;1.00;;
53757;SDS011;39674;59.860;30.672;2022-07-05T21:42:55;3.88;;;1.73;;
53757;SDS011;39674;59.860;30.672;2022-07-05T21:44:47;3.78;;;1.33;;
53757;SDS011;39674;59.860;30.672;2022-07-05T21:47:32;3.30;;;1.40;;
53757;SDS011;39674;59.860;30.672;2022-07-05T21:50:09;3.83;;;1.58;;
53757;SDS011;39674;59.860;30.672;2022-07-05T21:52:55;4.50;;;1.40;;
53757;SDS011;39674;59.860;30.672;2022-07-05T21:55:38;4.25;;;1.75;;
53757;SDS011;39674;59.860;30.672;2022-07-05T21:58:17;5.55;;;1.52;;
53757;SDS011;39674;59.860;30.672;2022-07-05T22:01:02;7.05;;;1.77;;
53757;SDS011;39674;59.860;30.672;2022-07-05T22:03:54;10.97;;;1.57;;
53757;SDS011;39674;59.860;30.672;2022-07-05T22:06:51;10.07;;;1.92;;
53757;SDS011;39674;59.860;30.672;2022-07-05T22:09:26;5.20;;;1.65;;
53757;SDS011;39674;59.860;30.672;2022-07-05T22:11:57;4.30;;;1.30;;
53757;SDS011;39674;59.860;30.672;2022-07-05T22:15:00;4.25;;;1.90;;
53757;SDS011;39674;59.860;30.672;2022-07-05T22:17:44;2.00;;;1.58;;
53757;SDS011;39674;59.860;30.672;2022-07-05T22:20:24;4.82;;;1.60;;
53757;SDS011;39674;59.860;30.672;2022-07-05T22:23:12;6.80;;;1.35;;
53757;SDS011;39674;59.860;30.672;2022-07-05T22:25:45;7.88;;;2.05;;
53757;SDS011;39674;59.860;30.672;2022-07-05T22:28:16;4.57;;;1.20;;
53757;SDS011;39674;59.860;30.672;2022-07-05T22:30:53;3.05;;;1.40;;
53757;SDS011;39674;59.860;30.672;2022-07-05T22:33:26;16.50;;;1.98;;
53757;SDS011;39674;59.860;30.672;2022-07-05T22:35:55;5.88;;;1.35;;
53757;SDS011;39674;59.860;30.672;2022-07-05T22:38:38;4.65;;;1.85;;
53757;SDS011;39674;59.860;30.672;2022-07-05T22:41:12;2.80;;;1.63;;
53757;SDS011;39674;59.860;30.672;2022-07-05T22:43:44;6.45;;;1.92;;
53757;SDS011;39674;59.860;30.672;2022-07-05T22:46:19;4.68;;;1.75;;
53757;SDS011;39674;59.860;30.672;2022-07-05T22:49:24;6.90;;;2.15;;
53757;SDS011;39674;59.860;30.672;2022-07-05T22:51:50;4.38;;;1.58;;
53757;SDS011;39674;59.860;30.672;2022-07-05T22:54:24;6.07;;;1.60;;
53757;SDS011;39674;59.860;30.672;2022-07-05T22:56:54;4.30;;;1.77;;
53757;SDS011;39674;59.860;30.672;2022-07-05T22:59:27;5.90;;;1.35;;
53757;SDS011;39674;59.860;30.672;2022-07-05T23:01:57;3.35;;;1.63;;
53757;SDS011;39674;59.860;30.672;2022-07-05T23:07:21;3.78;;;1.50;;
53757;SDS011;39674;59.860;30.672;2022-07-05T23:12:47;6.65;;;1.67;;
53757;SDS011;39674;59.860;30.672;2022-07-05T23:15:16;3.83;;;1.52;;
53757;SDS011;39674;59.860;30.672;2022-07-05T23:17:49;3.55;;;1.73;;
53757;SDS011;39674;59.860;30.672;2022-07-05T23:20:40;2.30;;;1.30;;
53757;SDS011;39674;59.860;30.672;2022-07-05T23:23:17;3.72;;;1.52;;
53757;SDS011;39674;59.860;30.672;2022-07-05T23:25:54;5.50;;;1.70;;
53757;SDS011;39674;59.860;30.672;2022-07-05T23:28:26;5.75;;;1.60;;
53757;SDS011;39674;59.860;30.672;2022-07-05T23:30:59;3.50;;;1.25;;
53757;SDS011;39674;59.860;30.672;2022-07-05T23:34:00;2.75;;;1.55;;
53757;SDS011;39674;59.860;30.672;2022-07-05T23:36:36;3.33;;;1.85;;
53757;SDS011;39674;59.860;30.672;2022-07-05T23:39:11;4.65;;;1.70;;
53757;SDS011;39674;59.860;30.672;2022-07-05T23:41:48;2.30;;;1.50;;
53757;SDS011;39674;59.860;30.672;2022-07-05T23:44:19;6.55;;;1.90;;
53757;SDS011;39674;59.860;30.672;2022-07-05T23:46:53;7.47;;;1.83;;
53757;SDS011;39674;59.860;30.672;2022-07-05T23:49:26;4.75;;;1.63;;
53757;SDS011;39674;59.860;30.672;2022-07-05T23:52:04;6.15;;;1.90;;
53757;SDS011;39674;59.860;30.672;2022-07-05T23:54:42;4.50;;;1.50;;
53757;SDS011;39674;59.860;30.672;2022-07-05T23:57:26;6.25;;;1.60;;
53757;SDS011;39674;59.860;30.672;2022-07-05T23:59:57;4.95;;;1.98;;
